Flight Track Log - Related Links

Times and Time Zones

All times are in EDT time to prevent confusion due to time zone crossing. See the UAL1243 flight status page for this flight to view local times or setup timezone preferences in your user account.


Time Position Orientation Groundspeed Altitude Reporting Facility
EDT Latitude Longitude Course Direction KTS MPH feet Rate Location/Type
Wed 09:29:27 AM 37.6440 -122.2760 80° East 230 265 3,500  Level FlightAware ADS-B
Wed 09:29:57 AM 37.6320 -122.2310 109° East 267 307 4,400 2,400 Climbing FlightAware ADS-B
Wed 09:30:00 AM 37.9478 -122.2821 80° East  Level FlightAware Approximate
Wed 09:30:22 AM 37.6250 -122.1950 104° East 268 308 5,700  Level FlightAware ADS-B
Wed 09:30:52 AM 37.6330 -122.1490 78° East 270 311 7,300 3,067 Climbing FlightAware ADS-B
Wed 09:31:07 AM 37.6480 -122.1350 36° Northeast 277 319 8,000 2,400 Climbing FlightAware ADS-B
Wed 09:31:32 AM 37.6760 -122.1180 26° Northeast 284 327 8,900 2,550 Climbing FlightAware ADS-B
Wed 09:31:47 AM 37.6960 -122.1060 25° Northeast 291 335 9,700 2,300 Climbing FlightAware ADS-B
Wed 09:32:32 AM 37.7510 -122.0730 25° Northeast 317 365 11,200 1,976 Climbing FlightAware ADS-B
Wed 09:33:12 AM 37.8060 -122.0370 27° Northeast 338 389 12,500 2,182 Climbing FlightAware ADS-B
Wed 09:33:27 AM 37.8210 -122.0110 54° Northeast 351 404 13,200 2,400 Climbing FlightAware ADS-B
Wed 09:34:07 AM 37.8400 -121.9320 73° East 365 420 14,700 2,259 Climbing FlightAware ADS-B
Wed 09:34:52 AM 37.8640 -121.8380 72° East 376 433 16,400 2,188 Climbing FlightAware ADS-B
Wed 09:35:32 AM 37.8860 -121.7530 72° East 388 447 17,800 2,025 Climbing FlightAware ADS-B
Wed 09:36:12 AM 37.9070 -121.6730 72° East 389 448 19,100 2,047 Climbing FlightAware ADS-B
Wed 09:36:57 AM 37.9350 -121.5600 73° East 406 467 20,700 2,047 Climbing FlightAware ADS-B
Wed 09:37:37 AM 37.9580 -121.4680 72° East 411 473 22,000 1,906 Climbing FlightAware ADS-B
Wed 09:38:22 AM 37.9840 -121.3680 72° East 416 479 23,400 1,624 Climbing FlightAware ADS-B
Wed 09:39:02 AM 38.0070 -121.2760 72° East 426 490 24,300 1,341 Climbing FlightAware ADS-B
Wed 09:39:47 AM 38.0350 -121.1650 72° East 437 503 25,300 1,341 Climbing FlightAware ADS-B
Wed 09:40:27 AM 38.0550 -121.0630 76° East 446 513 26,200 1,350 Climbing FlightAware ADS-B
Wed 09:41:07 AM 38.0740 -120.9550 77° East 453 521 27,100 1,275 Climbing FlightAware ADS-B
Wed 09:41:47 AM 38.0930 -120.8520 77° East 459 528 27,900 1,059 Climbing FlightAware ADS-B
Wed 09:42:32 AM 38.1140 -120.7400 77° East 467 537 28,600 988 Climbing FlightAware ADS-B
Wed 09:43:12 AM 38.1340 -120.6290 77° East 474 545 29,300 1,059 Climbing FlightAware ADS-B
Wed 09:43:57 AM 38.1570 -120.5020 77° East 481 554 30,100 1,129 Climbing FlightAware ADS-B
Wed 09:44:37 AM 38.1760 -120.3970 77° East 480 552 30,900 1,275 Climbing FlightAware ADS-B
Wed 09:45:17 AM 38.1970 -120.2800 77° East 479 551 31,800 1,200 Climbing FlightAware ADS-B
Wed 09:45:52 AM 38.2130 -120.1890 77° East 479 551 32,400 1,059 Climbing FlightAware ADS-B
Wed 09:46:42 AM 38.2370 -120.0540 77° East 477 549 33,300 1,074 Climbing FlightAware ADS-B
Wed 09:47:27 AM 38.2590 -119.9260 78° East 476 548 34,100 988 Climbing FlightAware ADS-B
Wed 09:48:07 AM 38.2770 -119.8230 77° East 476 548 34,700 675 Climbing FlightAware ADS-B
Wed 09:48:47 AM 38.2970 -119.7070 78° East 477 549 35,000 225 Climbing FlightAware ADS-B
Wed 09:49:27 AM 38.3140 -119.6120 77° East 477 549 35,000  Level FlightAware ADS-B
Wed 09:50:07 AM 38.3310 -119.5190 77° East 477 549 35,000  Level FlightAware ADS-B
Wed 09:50:57 AM 38.3580 -119.3520 78° East 475 547 35,000  Level FlightAware ADS-B
Wed 09:51:37 AM 38.3760 -119.2430 78° East 477 549 35,000  Level FlightAware ADS-B
Wed 09:52:17 AM 38.3920 -119.1470 78° East 477 549 35,000  Level FlightAware ADS-B
Wed 09:52:57 AM 38.4070 -119.0540 78° East 477 549 35,000  Level FlightAware ADS-B
Wed 09:53:37 AM 38.4230 -118.9600 78° East 477 549 35,000  Level FlightAware ADS-B
Wed 09:54:17 AM 38.4390 -118.8660 78° East 477 549 35,000  Level FlightAware ADS-B
Wed 09:55:07 AM 38.4580 -118.7490 78° East 477 549 35,000  Level FlightAware ADS-B
Wed 09:55:47 AM 38.4740 -118.6560 78° East 477 549 35,000  Level FlightAware ADS-B
Wed 09:56:27 AM 38.4890 -118.5620 78° East 477 549 35,000  Level FlightAware ADS-B
Wed 09:57:07 AM 38.5050 -118.4680 78° East 477 549 35,000  Level FlightAware ADS-B
Wed 09:57:47 AM 38.5200 -118.3740 78° East 477 549 35,000  Level FlightAware ADS-B
Wed 09:58:37 AM 38.5400 -118.2570 78° East 477 549 35,000  Level FlightAware ADS-B
Wed 09:59:17 AM 38.5550 -118.1630 78° East 477 549 35,000  Level FlightAware ADS-B
Wed 09:59:57 AM 38.5710 -118.0690 78° East 477 549 35,000  Level FlightAware ADS-B
Wed 10:00:37 AM 38.5870 -117.9750 78° East 477 549 35,000  Level FlightAware ADS-B
Wed 10:01:27 AM 38.6060 -117.8580 78° East 477 549 35,000  Level FlightAware ADS-B
Wed 10:02:19 AM 38.6622 -117.4456 78° East 501 577 35,000  Level Salt Lake Center
Wed 10:03:20 AM 38.6897 -117.2686 79° East 503 579 35,000  Level Salt Lake Center
Wed 10:04:21 AM 38.7164 -117.0903 79° East 505 581 35,000  Level Salt Lake Center
Wed 10:05:23 AM 38.7428 -116.9111 79° East 507 583 35,000  Level Salt Lake Center
Wed 10:06:37 AM 38.7733 -116.6967 80° East 508 585 35,000  Level Oakland Center
Wed 10:07:25 AM 38.7942 -116.5536 79° East 509 586 35,000  Level Salt Lake Center
Wed 10:08:27 AM 38.8203 -116.3728 79° East 512 589 35,000  Level Salt Lake Center
Wed 10:09:28 AM 38.8453 -116.1919 80° East 515 593 35,000  Level Salt Lake Center
Wed 10:10:29 AM 38.8706 -116.0103 80° East 516 594 35,000  Level Salt Lake Center
Wed 10:11:31 AM 38.8964 -115.8278 80° East 519 597 35,000  Level Salt Lake Center
Wed 10:12:32 AM 38.9250 -115.6064 81° East 523 602 35,000  Level Salt Lake Center
Wed 10:13:34 AM 38.9506 -115.4208 80° East 525 604 35,000  Level Salt Lake Center
Wed 10:14:35 AM 38.9717 -115.2608 80° East 523 602 35,000  Level Salt Lake Center
Wed 10:15:36 AM 38.9994 -115.0389 81° East 525 604 35,000  Level Salt Lake Center
Wed 10:16:38 AM 39.0242 -114.8511 80° East 529 609 35,000  Level Salt Lake Center
Wed 10:17:39 AM 39.0500 -114.6650 80° East 530 610 35,000  Level Salt Lake Center
Wed 10:18:41 AM 39.0739 -114.4775 81° East 530 610 35,000  Level Salt Lake Center
Wed 10:19:42 AM 39.0972 -114.2922 81° East 529 609 35,000  Level Salt Lake Center
Wed 10:20:43 AM 39.1183 -114.1050 82° East 529 609 35,000  Level Salt Lake Center
Wed 10:21:45 AM 39.1431 -113.9133 80° East 534 615 35,000  Level Salt Lake Center
Wed 10:22:46 AM 39.1656 -113.7219 81° East 539 620 35,000  Level Salt Lake Center
Wed 10:23:48 AM 39.1881 -113.5317 81° East 537 618 35,000  Level Salt Lake Center
Wed 10:24:49 AM 39.2142 -113.3036 82° East 536 617 35,000  Level Salt Lake Center
Wed 10:25:51 AM 39.2361 -113.1131 81° East 536 617 35,000  Level Salt Lake Center
Wed 10:26:52 AM 39.2569 -112.9222 82° East 538 619 35,000  Level Salt Lake Center
Wed 10:27:54 AM 39.2781 -112.7308 82° East 539 620 35,000  Level Salt Lake Center
Wed 10:28:55 AM 39.2983 -112.5475 82° East 537 618 35,000  Level Salt Lake Center
Wed 10:29:57 AM 39.3469 -112.3650 71° East 542 624 35,000  Level Salt Lake Center
Wed 10:30:58 AM 39.4025 -112.1869 68° East 539 620 35,000  Level Salt Lake Center
Wed 10:32:00 AM 39.4692 -111.9742 68° East 536 617 35,000  Level Salt Lake Center
Wed 10:33:01 AM 39.5244 -111.7950 68° East 538 619 35,000  Level Salt Lake Center
Wed 10:34:03 AM 39.5778 -111.6169 69° East 535 616 35,000  Level Salt Lake Center
Wed 10:35:04 AM 39.6311 -111.4392 69° East 533 613 35,000  Level Salt Lake Center
Wed 10:36:06 AM 39.6631 -111.2275 79° East 540 621 35,000  Level Salt Lake Center
Wed 10:37:08 AM 39.6881 -111.0431 80° East 543 625 35,000  Level Salt Lake Center
Wed 10:38:09 AM 39.7164 -110.8258 80° East 546 628 35,000  Level Salt Lake Center
Wed 10:39:11 AM 39.7419 -110.6400 80° East 546 628 35,000  Level Salt Lake Center
Wed 10:40:12 AM 39.7656 -110.4542 81° East 544 626 35,000  Level Salt Lake Center
Wed 10:41:14 AM 39.7936 -110.2367 80° East 546 628 35,000  Level Salt Lake Center
Wed 10:42:16 AM 39.8175 -110.0483 81° East 549 632 35,000  Level Salt Lake Center
Wed 10:43:17 AM 39.8453 -109.8286 81° East 552 635 35,000  Level Salt Lake Center
Wed 10:44:19 AM 39.8683 -109.6406 81° East 550 633 35,000  Level Salt Lake Center
Wed 10:44:42 AM 39.8761 -109.5750 81° East 555 639 35,000  Level Denver Center
Wed 10:45:44 AM 39.9036 -109.3542 81° East 552 635 35,000  Level Denver Center
Wed 10:46:46 AM 39.9267 -109.1625 81° East 556 640 35,000  Level Denver Center
Wed 10:47:24 AM 39.9419 -109.0375 81° East 555 639 35,000  Level Salt Lake Center
Wed 10:48:26 AM 39.9683 -108.8119 81° East 558 642 35,000  Level Salt Lake Center
Wed 10:48:50 AM 39.9764 -108.7458 81° East 557 641 35,000  Level Denver Center
Wed 10:49:52 AM 40.0017 -108.5189 82° East 562 647 35,000  Level Denver Center
Wed 10:50:54 AM 40.0231 -108.3253 82° East 559 643 35,000  Level Denver Center
Wed 10:51:56 AM 40.0442 -108.1339 82° East 557 641 35,000  Level Denver Center
Wed 10:52:58 AM 40.0703 -107.9108 81° East 555 639 35,000  Level Denver Center
Wed 10:59:02 AM 40.3280 -106.7780 81° East 528 608 35,000  Level FlightAware ADS-B
Wed 10:59:47 AM 40.3610 -106.6310 74° East 526 605 35,000  Level FlightAware ADS-B
Wed 11:00:22 AM 40.3820 -106.5360 74° East 526 605 35,000  Level FlightAware ADS-B
Wed 11:01:12 AM 40.4170 -106.3710 74° East 530 610 35,000  Level FlightAware ADS-B
Wed 11:01:52 AM 40.4440 -106.2480 74° East 527 606 35,000  Level FlightAware ADS-B
Wed 11:02:32 AM 40.4690 -106.1330 74° East 524 603 35,000  Level FlightAware ADS-B
Wed 11:03:17 AM 40.5000 -105.9880 74° East 525 604 35,000  Level FlightAware ADS-B
Wed 11:03:57 AM 40.5270 -105.8620 74° East 525 604 35,000  Level FlightAware ADS-B
Wed 11:04:37 AM 40.5520 -105.7440 74° East 523 602 35,000  Level FlightAware ADS-B
Wed 11:05:22 AM 40.5810 -105.6050 75° East 522 601 35,000  Level FlightAware ADS-B
Wed 11:06:02 AM 40.6070 -105.4820 74° East 524 603 35,000  Level FlightAware ADS-B
Wed 11:06:33 AM 40.6274 -105.3830 75° East 519 597 35,000  Level FlightAware ADS-B
Wed 11:07:34 AM 40.6658 -105.1970 75° East 523 602 35,000  Level FlightAware ADS-B
Wed 11:08:05 AM 40.6851 -105.1010 75° East 526 605 35,000  Level FlightAware ADS-B
Wed 11:08:35 AM 40.7045 -105.0080 75° East 524 603 35,000  Level FlightAware ADS-B
Wed 11:09:05 AM 40.7238 -104.9150 75° East 523 602 35,000  Level FlightAware ADS-B
Wed 11:09:36 AM 40.7431 -104.8190 75° East 522 601 35,000  Level FlightAware ADS-B
Wed 11:10:07 AM 40.7618 -104.7260 75° East 518 596 35,000  Level FlightAware ADS-B
Wed 11:10:37 AM 40.7802 -104.6340 75° East 520 598 35,000  Level FlightAware ADS-B
Wed 11:11:09 AM 40.7995 -104.5370 75° East 521 600 35,000  Level FlightAware ADS-B
Wed 11:11:40 AM 40.8187 -104.4400 75° East 522 601 35,000  Level FlightAware ADS-B
Wed 11:12:14 AM 40.8391 -104.3360 75° East 523 602 35,000  Level FlightAware ADS-B
Wed 11:12:44 AM 40.8572 -104.2430 76° East 524 603 35,000  Level FlightAware ADS-B
Wed 11:13:14 AM 40.8754 -104.1500 75° East 525 604 35,000  Level FlightAware ADS-B
Wed 11:13:44 AM 40.8938 -104.0560 75° East 523 602 35,000  Level FlightAware ADS-B
Wed 11:14:16 AM 40.9129 -103.9580 76° East 522 601 35,000  Level FlightAware ADS-B
Wed 11:14:48 AM 40.9320 -103.8590 76° East 523 602 35,000  Level FlightAware ADS-B
Wed 11:15:19 AM 40.9502 -103.7640 76° East 522 601 35,000  Level FlightAware ADS-B
Wed 11:15:49 AM 40.9680 -103.6700 76° East 525 604 35,000  Level FlightAware ADS-B
Wed 11:16:21 AM 40.9866 -103.5720 76° East 524 603 35,000  Level FlightAware ADS-B
Wed 11:16:51 AM 41.0043 -103.4780 76° East 523 602 35,000  Level FlightAware ADS-B
Wed 11:17:22 AM 41.0223 -103.3820 76° East 524 603 35,000  Level FlightAware ADS-B
Wed 11:17:52 AM 41.0399 -103.2890 76° East 523 602 35,000  Level FlightAware ADS-B
Wed 11:18:23 AM 41.0576 -103.1940 76° East 523 602 35,000  Level FlightAware ADS-B
Wed 11:18:53 AM 41.0748 -103.1010 76° East 524 603 35,000  Level FlightAware ADS-B
Wed 11:19:23 AM 41.0920 -103.0070 76° East 523 602 35,000  Level FlightAware ADS-B
Wed 11:19:48 AM 41.1009 -102.9290 81° East 529 609 35,000  Level FlightAware ADS-B
Wed 11:20:21 AM 41.1094 -102.8220 84° East 529 609 35,000  Level FlightAware ADS-B
Wed 11:20:53 AM 41.1176 -102.7180 84° East 528 608 35,000  Level FlightAware ADS-B
Wed 11:21:23 AM 41.1252 -102.6200 84° East 528 608 35,000  Level FlightAware ADS-B
Wed 11:21:54 AM 41.1328 -102.5230 84° East 528 608 35,000  Level FlightAware ADS-B
Wed 11:22:24 AM 41.1402 -102.4250 84° East 528 608 35,000  Level FlightAware ADS-B
Wed 11:22:55 AM 41.1476 -102.3280 84° East 528 608 35,000  Level FlightAware ADS-B
Wed 11:23:27 AM 41.1553 -102.2240 84° East 527 606 35,000  Level FlightAware ADS-B
Wed 11:23:59 AM 41.1628 -102.1200 84° East 526 605 35,000  Level FlightAware ADS-B
Wed 11:24:30 AM 41.1699 -102.0210 85° East 526 605 35,000  Level FlightAware ADS-B
Wed 11:25:19 AM 41.1812 -101.8630 85° East 525 604 35,000  Level FlightAware ADS-B
Wed 11:25:50 AM 41.1883 -101.7640 85° East 524 603 35,000  Level FlightAware ADS-B
Wed 11:26:28 AM 41.1968 -101.6440 85° East 522 601 35,000  Level FlightAware ADS-B
Wed 11:26:59 AM 41.2034 -101.5470 85° East 521 600 35,000  Level FlightAware ADS-B
Wed 11:27:29 AM 41.2099 -101.4510 85° East 520 598 35,000  Level FlightAware ADS-B
Wed 11:28:07 AM 41.2181 -101.3290 85° East 519 597 35,000  Level FlightAware ADS-B
Wed 11:29:10 AM 41.2292 -101.1578 85° East 516 594 35,000  Level Denver Center
Wed 11:30:12 AM 41.2433 -100.9433 85° East 518 596 35,000  Level Denver Center
Wed 11:31:14 AM 41.2542 -100.7583 85° East 520 598 35,000  Level Denver Center
Wed 11:32:16 AM 41.2647 -100.5750 86° East 518 596 35,000  Level Denver Center
Wed 11:33:18 AM 41.2783 -100.3594 85° East 521 600 35,000  Level Denver Center
Wed 11:34:20 AM 41.2881 -100.1747 86° East 521 600 35,000  Level Denver Center
Wed 11:35:22 AM 41.3014 -99.9583 85° East 524 603 35,000  Level Denver Center
Wed 11:36:25 AM 41.3106 -99.7736 86° East 523 602 35,000  Level Denver Center
Wed 11:37:27 AM 41.3222 -99.5575 86° East 524 603 35,000  Level Denver Center
Wed 11:38:29 AM 41.3311 -99.3575 87° East 524 603 35,000  Level Denver Center
Wed 11:39:31 AM 41.3408 -99.1636 86° East 522 601 35,000  Level Denver Center
Wed 11:40:33 AM 41.3486 -98.9703 87° East 519 597 35,000  Level Denver Center
Wed 11:41:12 AM 41.3533 -98.8722 86° East 517 595 35,000  Level Minneapolis Center
Wed 11:42:14 AM 41.3631 -98.6436 87° East 515 593 35,000  Level Minneapolis Center
Wed 11:43:28 AM 41.3722 -98.4525 86° East 517 595 35,000  Level Minneapolis Center
Wed 11:44:30 AM 41.3797 -98.2347 87° East 521 600 35,000  Level Minneapolis Center
Wed 11:45:32 AM 41.3858 -98.0297 88° East 517 595 35,000  Level Minneapolis Center
Wed 11:46:34 AM 41.3922 -97.8392 87° East 516 594 35,000  Level Minneapolis Center
Wed 11:47:36 AM 41.3972 -97.6494 88° East 515 593 35,000  Level Minneapolis Center
Wed 11:48:38 AM 41.4033 -97.4214 88° East 515 593 35,000  Level Minneapolis Center
Wed 11:49:40 AM 41.4089 -97.2311 88° East 515 593 35,000  Level Minneapolis Center
Wed 11:50:41 AM 41.4125 -97.0406 88° East 514 592 35,000  Level Minneapolis Center
Wed 11:51:43 AM 41.4169 -96.8522 88° East 512 589 35,000  Level Minneapolis Center
Wed 11:52:45 AM 41.4194 -96.6614 89° East 513 590 35,000  Level Minneapolis Center
Wed 11:53:47 AM 41.4236 -96.4714 88° East 513 590 35,000  Level Minneapolis Center
Wed 11:54:49 AM 41.4253 -96.2539 89° East 514 592 35,000  Level Minneapolis Center
Wed 11:55:50 AM 41.4256 -96.1031 90° East 511 588 35,000  Level Minneapolis Center
Wed 11:57:05 AM 41.4303 -95.8764 88° East 512 589 35,000  Level Minneapolis Center
Wed 11:58:07 AM 41.4342 -95.6883 88° East 509 586 35,000  Level Minneapolis Center
Wed 11:59:09 AM 41.4364 -95.4378 89° East 507 583 35,000  Level Minneapolis Center
Wed 12:00:11 PM 41.4375 -95.2500 89° East 507 583 35,000  Level Minneapolis Center
Wed 12:01:13 PM 41.4394 -95.0628 89° East 506 582 35,000  Level Minneapolis Center
Wed 12:02:14 PM 41.4406 -94.8733 89° East 509 586 35,000  Level Minneapolis Center
Wed 12:03:16 PM 41.4394 -94.6867 90° East 507 583 35,000  Level Minneapolis Center
Wed 12:04:18 PM 41.4406 -94.5022 89° East 500 575 35,000  Level Minneapolis Center
Wed 12:05:20 PM 41.4397 -94.3172 90° East 499 574 35,000  Level Minneapolis Center
Wed 12:11:12 PM 41.4780 -93.2280 90° East 493 567 35,000  Level FlightAware ADS-B
Wed 12:11:47 PM 41.4890 -93.1120 83° East 493 567 35,000  Level FlightAware ADS-B
Wed 12:12:32 PM 41.5020 -92.9720 83° East 494 568 35,000  Level FlightAware ADS-B
Wed 12:13:17 PM 41.5130 -92.8530 83° East 495 570 35,000  Level FlightAware ADS-B
Wed 12:13:52 PM 41.5240 -92.7350 83° East 497 572 35,000  Level FlightAware ADS-B
Wed 12:14:32 PM 41.5350 -92.6090 83° East 498 573 35,000  Level FlightAware ADS-B
Wed 12:15:22 PM 41.5480 -92.4580 83° East 499 574 35,000  Level FlightAware ADS-B
Wed 12:16:07 PM 41.5600 -92.3210 83° East 499 574 35,000  Level FlightAware ADS-B
Wed 12:16:47 PM 41.5690 -92.2120 84° East 499 574 35,000  Level FlightAware ADS-B
Wed 12:17:27 PM 41.5810 -92.0760 83° East 498 573 35,000  Level FlightAware ADS-B
Wed 12:18:07 PM 41.5900 -91.9700 83° East 498 573 35,000  Level FlightAware ADS-B
Wed 12:18:52 PM 41.6020 -91.8300 83° East 499 574 35,000  Level FlightAware ADS-B
Wed 12:19:37 PM 41.6130 -91.6860 84° East 498 573 35,000  Level FlightAware ADS-B
Wed 12:20:17 PM 41.6230 -91.5630 84° East 499 574 35,000  Level FlightAware ADS-B
Wed 12:20:57 PM 41.6330 -91.4330 84° East 500 575 35,000  Level FlightAware ADS-B
Wed 12:21:42 PM 41.6440 -91.3010 84° East 502 578 35,000  Level FlightAware ADS-B
Wed 12:22:27 PM 41.6550 -91.1580 84° East 504 580 35,000  Level FlightAware ADS-B
Wed 12:23:07 PM 41.6640 -91.0330 84° East 504 580 35,000  Level FlightAware ADS-B
Wed 12:23:47 PM 41.6730 -90.9090 84° East 506 582 35,000  Level FlightAware ADS-B
Wed 12:24:27 PM 41.6820 -90.7840 84° East 506 582 35,000  Level FlightAware ADS-B
Wed 12:25:07 PM 41.6910 -90.6630 84° East 505 581 35,000  Level FlightAware ADS-B
Wed 12:25:52 PM 41.7010 -90.5250 84° East 504 580 35,000  Level FlightAware ADS-B
Wed 12:26:32 PM 41.7100 -90.4040 84° East 502 578 35,000  Level FlightAware ADS-B
Wed 12:27:22 PM 41.7200 -90.2480 85° East 500 575 35,000  Level FlightAware ADS-B
Wed 12:28:02 PM 41.7290 -90.1190 85° East 498 573 35,000  Level FlightAware ADS-B
Wed 12:28:42 PM 41.7360 -90.0080 85° East 497 572 35,000  Level FlightAware ADS-B
Wed 12:29:27 PM 41.7460 -89.8620 85° East 496 571 35,000  Level FlightAware ADS-B
Wed 12:30:07 PM 41.7530 -89.7390 86° East 495 570 35,000  Level FlightAware ADS-B
Wed 12:30:52 PM 41.7620 -89.6070 85° East 496 571 35,000  Level FlightAware ADS-B
Wed 12:31:32 PM 41.7700 -89.4770 85° East 496 571 35,000  Level FlightAware ADS-B
Wed 12:32:12 PM 41.7770 -89.3600 85° East 496 571 35,000  Level FlightAware ADS-B
Wed 12:32:57 PM 41.7860 -89.2190 85° East 496 571 35,000  Level FlightAware ADS-B
Wed 12:33:37 PM 41.7930 -89.0970 86° East 496 571 35,000  Level FlightAware ADS-B
Wed 12:34:17 PM 41.7990 -88.9760 86° East 496 571 35,000  Level FlightAware ADS-B
Wed 12:35:02 PM 41.8070 -88.8400 85° East 496 571 35,000  Level FlightAware ADS-B
Wed 12:35:42 PM 41.8140 -88.7190 86° East 497 572 35,000  Level FlightAware ADS-B
Wed 12:36:27 PM 41.8220 -88.5780 86° East 498 573 35,000  Level FlightAware ADS-B
Wed 12:37:07 PM 41.8280 -88.4550 86° East 498 573 35,000  Level FlightAware ADS-B
Wed 12:37:52 PM 41.8350 -88.3190 86° East 497 572 35,000  Level FlightAware ADS-B
Wed 12:38:32 PM 41.8410 -88.1910 86° East 497 572 35,000  Level FlightAware ADS-B
Wed 12:39:12 PM 41.8470 -88.0730 86° East 496 571 35,000  Level FlightAware ADS-B
Wed 12:39:57 PM 41.8540 -87.9320 86° East 493 567 35,000  Level FlightAware ADS-B
Wed 12:40:37 PM 41.8600 -87.8140 86° East 490 564 35,000  Level FlightAware ADS-B
Wed 12:41:22 PM 41.8660 -87.6740 87° East 487 560 35,000  Level FlightAware ADS-B
Wed 12:42:02 PM 41.8710 -87.5610 87° East 485 558 35,000  Level FlightAware ADS-B
Wed 12:42:42 PM 41.8770 -87.4390 86° East 485 558 35,000  Level FlightAware ADS-B
Wed 12:43:27 PM 41.8820 -87.3080 87° East 485 558 35,000  Level FlightAware ADS-B
Wed 12:44:07 PM 41.8870 -87.1900 87° East 483 556 35,000  Level FlightAware ADS-B
Wed 12:44:52 PM 41.8930 -87.0500 87° East 481 554 35,000  Level FlightAware ADS-B
Wed 12:45:32 PM 41.8980 -86.9260 87° East 481 554 35,000  Level FlightAware ADS-B
Wed 12:46:07 PM 41.9010 -86.8310 88° East 481 554 35,000  Level FlightAware ADS-B
Wed 12:46:52 PM 41.9060 -86.6890 87° East 482 555 35,000  Level FlightAware ADS-B
Wed 12:47:37 PM 41.9110 -86.5600 87° East 481 554 35,000  Level FlightAware ADS-B
Wed 12:48:22 PM 41.9160 -86.4230 87° East 482 555 35,000  Level FlightAware ADS-B
Wed 12:49:02 PM 41.9200 -86.3150 87° East 482 555 35,000  Level FlightAware ADS-B
Wed 12:49:42 PM 41.9240 -86.1870 88° East 483 556 35,000  Level FlightAware ADS-B
Wed 12:50:27 PM 41.9280 -86.0460 88° East 485 558 35,000  Level FlightAware ADS-B
Wed 12:51:07 PM 41.9320 -85.9380 87° East 487 560 35,000  Level FlightAware ADS-B
Wed 12:51:47 PM 41.9350 -85.8090 88° East 489 563 35,000  Level FlightAware ADS-B
Wed 12:52:32 PM 41.9390 -85.6660 88° East 491 565 35,000  Level FlightAware ADS-B
Wed 12:53:07 PM 41.9420 -85.5670 88° East 488 562 35,000  Level FlightAware ADS-B
Wed 12:53:57 PM 41.9460 -85.4150 88° East 487 560 35,000  Level FlightAware ADS-B
Wed 12:54:37 PM 41.9490 -85.2930 88° East 488 562 35,000  Level FlightAware ADS-B
Wed 12:55:22 PM 41.9520 -85.1680 88° East 485 558 35,000  Level FlightAware ADS-B
Wed 12:56:17 PM 41.9500 -84.9990 91° East 484 557 35,000  Level FlightAware ADS-B
Wed 12:56:57 PM 41.9490 -84.8830 91° East 486 559 35,000  Level FlightAware ADS-B
Wed 12:57:32 PM 41.9490 -84.7680 90° East 486 559 35,000  Level FlightAware ADS-B
Wed 12:58:22 PM 41.9480 -84.6140 90° East 483 556 35,000  Level FlightAware ADS-B
Wed 12:59:02 PM 41.9470 -84.4950 91° East 482 555 35,000  Level FlightAware ADS-B
Wed 12:59:42 PM 41.9460 -84.3790 91° East 479 551 35,000  Level FlightAware ADS-B
Wed 01:00:27 PM 41.9450 -84.2490 91° East 473 544 35,000  Level FlightAware ADS-B
Wed 01:01:17 PM 41.9440 -84.1100 91° East 473 544 35,000  Level FlightAware ADS-B
Wed 01:02:07 PM 41.9410 -83.9510 91° East 470 541 35,000  Level FlightAware ADS-B
Wed 01:03:02 PM 41.9390 -83.7940 91° East 467 537 35,000  Level FlightAware ADS-B
Wed 01:03:52 PM 41.9380 -83.6570 91° East 466 536 35,000  Level FlightAware ADS-B
Wed 01:04:37 PM 41.9360 -83.5420 91° East 466 536 35,000  Level FlightAware ADS-B
Wed 01:05:22 PM 41.9340 -83.4180 91° East 474 545 35,000  Level FlightAware ADS-B
Wed 01:06:02 PM 41.9340 -83.2960 90° East 481 554 35,000  Level FlightAware ADS-B
Wed 01:06:42 PM 41.9340 -83.1710 90° East 483 556 35,000  Level FlightAware ADS-B
Wed 01:07:27 PM 41.9330 -83.0350 91° East 483 556 35,000  Level FlightAware ADS-B
Wed 01:08:07 PM 41.9320 -82.9110 91° East 485 558 35,000  Level FlightAware ADS-B
Wed 01:08:47 PM 41.9310 -82.8010 91° East 487 560 35,000  Level FlightAware ADS-B
Wed 01:09:32 PM 41.9290 -82.6380 91° East 490 564 35,000  Level FlightAware ADS-B
Wed 01:10:12 PM 41.9280 -82.5240 91° East 492 566 35,000  Level FlightAware ADS-B
Wed 01:10:57 PM 41.9260 -82.3750 91° East 492 566 35,000  Level FlightAware ADS-B
Wed 01:11:37 PM 41.9240 -82.2540 91° East 491 565 35,000  Level FlightAware ADS-B
Wed 01:12:22 PM 41.9230 -82.1220 91° East 492 566 35,000  Level FlightAware ADS-B
Wed 01:13:02 PM 41.9210 -81.9990 91° East 492 566 35,000  Level FlightAware ADS-B
Wed 01:13:42 PM 41.9180 -81.8770 92° East 492 566 35,000  Level FlightAware ADS-B
Wed 01:14:27 PM 41.9090 -81.7380 95° East 485 558 35,000  Level FlightAware ADS-B
Wed 01:15:07 PM 41.8990 -81.6190 96° East 487 560 35,000  Level FlightAware ADS-B
Wed 01:15:52 PM 41.8870 -81.4870 97° East 486 559 35,000  Level FlightAware ADS-B
Wed 01:16:32 PM 41.8760 -81.3680 97° East 486 559 35,000  Level FlightAware ADS-B
Wed 01:17:12 PM 41.8650 -81.2500 97° East 484 557 35,000  Level FlightAware ADS-B
Wed 01:17:57 PM 41.8530 -81.1170 97° East 479 551 35,000  Level FlightAware ADS-B
Wed 01:18:37 PM 41.8420 -80.9980 97° East 478 550 35,000  Level FlightAware ADS-B
Wed 01:19:22 PM 41.8290 -80.8670 98° East 476 548 35,000  Level FlightAware ADS-B
Wed 01:20:02 PM 41.8190 -80.7590 97° East 476 548 35,000  Level FlightAware ADS-B
Wed 01:20:37 PM 41.8090 -80.6610 98° East 476 548 35,000  Level FlightAware ADS-B
Wed 01:21:27 PM 41.7960 -80.5310 98° East 478 550 35,000  Level FlightAware ADS-B
Wed 01:22:07 PM 41.7840 -80.4050 97° East 480 552 35,000  Level FlightAware ADS-B
Wed 01:22:57 PM 41.7690 -80.2550 98° East 483 556 35,000  Level FlightAware ADS-B
Wed 01:23:42 PM 41.7550 -80.1190 98° East 485 558 35,000  Level FlightAware ADS-B
Wed 01:24:42 PM 41.7340 -79.9220 98° East 487 560 35,000  Level FlightAware ADS-B
Wed 01:25:22 PM 41.7240 -79.8200 97° East 489 563 35,000  Level FlightAware ADS-B
Wed 01:26:07 PM 41.7100 -79.6880 98° East 493 567 35,000  Level FlightAware ADS-B
Wed 01:26:47 PM 41.6960 -79.5660 99° East 494 568 35,000 -212 Level FlightAware ADS-B
Wed 01:27:32 PM 41.6810 -79.4290 98° East 493 567 34,700 -635 Descending FlightAware ADS-B
Wed 01:28:12 PM 41.6680 -79.3090 98° East 494 568 34,100 -525 Descending FlightAware ADS-B
Wed 01:28:52 PM 41.6550 -79.1850 98° East 496 571 34,000 -71 Descending FlightAware ADS-B
Wed 01:29:37 PM 41.6400 -79.0510 98° East 495 570 34,000  Level FlightAware ADS-B
Wed 01:30:17 PM 41.6260 -78.9280 99° East 495 570 34,000  Level FlightAware ADS-B
Wed 01:30:57 PM 41.6130 -78.8180 99° East 496 571 34,000  Level FlightAware ADS-B
Wed 01:31:42 PM 41.5970 -78.6720 98° East 494 568 34,000  Level FlightAware ADS-B
Wed 01:32:22 PM 41.5830 -78.5530 99° East 491 565 34,000  Level FlightAware ADS-B
Wed 01:33:07 PM 41.5670 -78.4220 99° East 470 541 34,000  Level FlightAware ADS-B
Wed 01:33:47 PM 41.5540 -78.3090 99° East 442 509 34,000  Level FlightAware ADS-B
Wed 01:34:32 PM 41.5410 -78.1990 99° East 439 505 34,000  Level FlightAware ADS-B
Wed 01:35:12 PM 41.5270 -78.0850 99° East 438 504 34,000  Level FlightAware ADS-B
Wed 01:35:52 PM 41.5140 -77.9850 100° East 438 504 34,000  Level FlightAware ADS-B
Wed 01:36:22 PM 41.5180 -77.8970 86° East 446 513 34,000  Level FlightAware ADS-B
Wed 01:36:37 PM 41.5300 -77.8660 63° Northeast 444 511 34,000  Level FlightAware ADS-B
Wed 01:37:02 PM 41.5690 -77.8200 41° Northeast 426 490 34,000  Level FlightAware ADS-B
Wed 01:37:32 PM 41.6180 -77.8030 15° North 393 452 34,000  Level FlightAware ADS-B
Wed 01:37:57 PM 41.6640 -77.8160 348° North 359 413 34,000  Level FlightAware ADS-B
Wed 01:38:27 PM 41.7030 -77.8570 322° Northwest 328 377 34,000  Level FlightAware ADS-B
Wed 01:39:07 PM 41.7250 -77.9260 293° West 308 354 34,000  Level FlightAware ADS-B
Wed 01:39:52 PM 41.7360 -78.0100 280° West 308 354 34,000  Level FlightAware ADS-B
Wed 01:40:32 PM 41.7450 -78.0870 279° West 308 354 34,000  Level FlightAware ADS-B
Wed 01:41:17 PM 41.7530 -78.1640 278° West 305 351 34,000  Level FlightAware ADS-B
Wed 01:41:57 PM 41.7370 -78.2420 255° West 300 345 34,000  Level FlightAware ADS-B
Wed 01:42:27 PM 41.7100 -78.2820 228° Southwest 306 352 34,000  Level FlightAware ADS-B
Wed 01:42:57 PM 41.6720 -78.3070 206° Southwest 322 371 34,000  Level FlightAware ADS-B
Wed 01:43:37 PM 41.6070 -78.3010 176° South 364 419 34,000  Level FlightAware ADS-B
Wed 01:44:02 PM 41.5720 -78.2720 148° Southeast 395 455 34,000  Level FlightAware ADS-B
Wed 01:44:32 PM 41.5410 -78.2030 121° Southeast 431 496 34,000  Level FlightAware ADS-B
Wed 01:45:12 PM 41.5280 -78.0990 99° East 440 506 34,000  Level FlightAware ADS-B
Wed 01:45:52 PM 41.5160 -77.9930 99° East 439 505 34,000  Level FlightAware ADS-B
Wed 01:46:27 PM 41.5180 -77.8980 88° East 447 514 34,000  Level FlightAware ADS-B
Wed 01:46:42 PM 41.5320 -77.8630 62° Northeast 445 512 34,000  Level FlightAware ADS-B
Wed 01:46:52 PM 41.5480 -77.8400 47° Northeast 438 504 34,000  Level FlightAware ADS-B
Wed 01:47:22 PM 41.5990 -77.8070 26° Northeast 407 468 34,000  Level FlightAware ADS-B
Wed 01:48:07 PM 41.6730 -77.8240 350° North 352 405 34,000  Level FlightAware ADS-B
Wed 01:48:32 PM 41.7030 -77.8600 318° Northwest 327 376 34,000  Level FlightAware ADS-B
Wed 01:49:02 PM 41.7220 -77.9100 297° West 309 356 34,000  Level FlightAware ADS-B
Wed 01:49:42 PM 41.7320 -77.9870 280° West 306 352 34,000  Level FlightAware ADS-B
Wed 01:50:22 PM 41.7410 -78.0600 279° West 306 352 34,000  Level FlightAware ADS-B
Wed 01:51:07 PM 41.7510 -78.1450 279° West 305 351 34,000  Level FlightAware ADS-B
Wed 01:51:47 PM 41.7600 -78.2180 279° West 307 353 34,000  Level FlightAware ADS-B
Wed 01:52:27 PM 41.7690 -78.2950 279° West 307 353 34,000 -212 Level FlightAware ADS-B
Wed 01:53:12 PM 41.7780 -78.3770 278° West 303 349 33,700 -706 Descending FlightAware ADS-B
Wed 01:53:52 PM 41.7880 -78.4530 280° West 299 344 33,000 -1,059 Descending FlightAware ADS-B
Wed 01:54:37 PM 41.7980 -78.5350 279° West 300 345 32,200 -988 Descending FlightAware ADS-B
Wed 01:55:17 PM 41.8070 -78.6040 280° West 299 344 31,600 -988 Descending FlightAware ADS-B
Wed 01:56:02 PM 41.8200 -78.6900 281° West 304 350 30,800 -494 Descending FlightAware ADS-B
Wed 01:56:42 PM 41.8320 -78.7630 282° West 306 352 30,900 150 Climbing FlightAware ADS-B
Wed 01:57:22 PM 41.8310 -78.8360 269° West 288 331 31,000 109 Climbing FlightAware ADS-B
Wed 01:57:37 PM 41.8190 -78.8570 233° Southwest 286 329 31,000  Level FlightAware ADS-B
Wed 01:57:52 PM 41.8010 -78.8700 208° Southwest 293 337 31,000  Level FlightAware ADS-B
Wed 01:58:02 PM 41.7890 -78.8720 187° South 302 348 31,000  Level FlightAware ADS-B
Wed 01:58:22 PM 41.7600 -78.8610 164° South 330 380 31,000  Level FlightAware ADS-B
Wed 01:58:42 PM 41.7370 -78.8380 143° Southeast 356 410 31,000  Level FlightAware ADS-B
Wed 01:59:02 PM 41.7180 -78.7950 121° Southeast 387 445 31,000  Level FlightAware ADS-B
Wed 01:59:42 PM 41.6970 -78.7090 108° East 395 455 31,000  Level FlightAware ADS-B
Wed 02:00:27 PM 41.6710 -78.6020 108° East 396 456 31,000  Level FlightAware ADS-B
Wed 02:01:07 PM 41.6470 -78.5050 108° East 397 457 31,000  Level FlightAware ADS-B
Wed 02:01:52 PM 41.6210 -78.3990 108° East 396 456 31,000  Level FlightAware ADS-B
Wed 02:02:32 PM 41.5990 -78.3110 108° East 393 452 31,000  Level FlightAware ADS-B
Wed 02:03:12 PM 41.5750 -78.2170 109° East 392 451 31,000  Level FlightAware ADS-B
Wed 02:03:57 PM 41.5500 -78.1160 108° East 393 452 31,000  Level FlightAware ADS-B
Wed 02:04:37 PM 41.5260 -78.0210 109° East 395 455 31,000  Level FlightAware ADS-B
Wed 02:05:32 PM 41.5170 -77.8900 95° East 415 478 31,000  Level FlightAware ADS-B
Wed 02:05:47 PM 41.5330 -77.8570 57° Northeast 416 479 31,000  Level FlightAware ADS-B
Wed 02:06:02 PM 41.5530 -77.8350 39° Northeast 409 471 31,000  Level FlightAware ADS-B
Wed 02:06:32 PM 41.6070 -77.8150 15° North 378 435 31,000  Level FlightAware ADS-B
Wed 02:06:57 PM 41.6470 -77.8300 344° North 349 402 31,000  Level FlightAware ADS-B
Wed 02:07:27 PM 41.6810 -77.8710 318° Northwest 317 365 31,000  Level FlightAware ADS-B
Wed 02:08:07 PM 41.6980 -77.9420 288° West 300 345 31,000  Level FlightAware ADS-B
Wed 02:08:52 PM 41.7090 -78.0250 280° West 300 345 31,000  Level FlightAware ADS-B
Wed 02:09:32 PM 41.7170 -78.0980 278° West 301 346 31,000  Level FlightAware ADS-B
Wed 02:10:12 PM 41.7260 -78.1700 280° West 301 346 31,000  Level FlightAware ADS-B
Wed 02:10:57 PM 41.7360 -78.2550 279° West 302 348 31,000  Level FlightAware ADS-B
Wed 02:11:37 PM 41.7440 -78.3240 279° West 303 349 31,000  Level FlightAware ADS-B
Wed 02:12:17 PM 41.7520 -78.4030 278° West 303 349 31,000  Level FlightAware ADS-B
Wed 02:13:02 PM 41.7610 -78.4820 279° West 298 343 31,000  Level FlightAware ADS-B
Wed 02:13:42 PM 41.7710 -78.5570 280° West 296 341 31,000  Level FlightAware ADS-B
Wed 02:14:27 PM 41.7800 -78.6390 278° West 295 339 31,000  Level FlightAware ADS-B
Wed 02:15:07 PM 41.7890 -78.7120 279° West 292 336 31,000  Level FlightAware ADS-B
Wed 02:15:37 PM 41.7860 -78.7600 265° West 279 321 31,000  Level FlightAware ADS-B
Wed 02:16:02 PM 41.7700 -78.7980 241° Southwest 279 321 31,000  Level FlightAware ADS-B
Wed 02:16:17 PM 41.7530 -78.8150 217° Southwest 286 329 31,000  Level FlightAware ADS-B
Wed 02:16:32 PM 41.7340 -78.8210 193° South 303 349 31,000  Level FlightAware ADS-B
Wed 02:16:57 PM 41.6980 -78.8060 163° South 343 395 31,000  Level FlightAware ADS-B
Wed 02:17:12 PM 41.6810 -78.7840 136° Southeast 366 421 31,000  Level FlightAware ADS-B
Wed 02:17:27 PM 41.6680 -78.7500 117° Southeast 394 453 31,000  Level FlightAware ADS-B

Login

Don't have an account? Register now (free) for customized features, flight alerts, and more!